Time;durP1;ratioP1;P1;durP2;ratioP2;P2;SDS_P1;SDS_P2;PMS_P1;PMS_P2;Temp;Humidity;BMP_temperature;BMP_pressure;BME280_temperature;BME280_humidity;BME280_pressure;Samples;Min_cycle;Max_cycle;Signal;HPM_P1;HPM_P2
2021/07/26 00:00:13;;;;;;;;;;;17.30;99.90;;;15.97;93.42;100555.91;3550329;39;102339;-39
2021/07/26 00:02:42;;;;;;;;;;;17.20;99.90;;;15.93;93.60;100547.34;3549228;39;102365;-38
2021/07/26 00:05:10;;;;;;;;;;;17.20;99.90;;;15.92;93.74;100550.34;3550137;39;102462;-38
2021/07/26 00:07:37;;;;;;;;;;;17.20;99.90;;;15.90;93.96;100545.09;3550586;39;102216;-38
2021/07/26 00:10:06;;;;;;;;;;;17.20;99.90;;;15.92;94.63;100544.84;3550421;39;102447;-39
2021/07/26 00:12:33;;;;;;;;;;;17.20;99.90;;;15.95;95.13;100547.94;3550416;39;104111;-40
2021/07/26 00:15:01;;;;;;;;;;;17.20;99.90;;;16.01;95.58;100542.50;3550046;39;102180;-38
2021/07/26 00:17:29;;;;;;;;;;;17.20;99.90;;;16.04;96.08;100552.97;3550666;39;103311;-39
2021/07/26 00:19:56;;;;;;;;;;;17.30;99.90;;;16.10;96.42;100552.78;3550612;39;102586;-39
2021/07/26 00:22:23;;;;;;;;;;;17.30;99.90;;;16.14;96.71;100549.53;3550439;39;102998;-39
2021/07/26 00:24:51;;;;;;;;;;;17.40;99.90;;;16.19;97.01;100550.44;3549982;39;102144;-38
2021/07/26 00:27:18;;;;;;;;;;;17.40;99.90;;;16.22;96.56;100551.81;3550031;39;103218;-39
2021/07/26 00:29:45;;;;;;;;;;;17.40;99.90;;;16.23;96.31;100553.47;3549206;39;102262;-38
2021/07/26 00:32:12;;;;;;;;;;;17.50;99.90;;;16.25;96.14;100563.16;3549757;39;102130;-38
2021/07/26 00:34:39;;;;;;;;;;;17.50;99.90;;;16.25;96.02;100551.31;3550328;39;102081;-39
2021/07/26 00:37:07;;;;;;;;;;;17.50;99.90;;;16.24;95.84;100553.22;3549840;39;102613;-38
2021/07/26 00:39:35;;;;;;;;;;;17.50;99.90;;;16.20;95.55;100546.59;3550045;39;102260;-38
2021/07/26 00:42:03;;;;;;;;;;;17.50;99.90;;;16.25;95.63;100554.91;3549991;39;102297;-39
2021/07/26 00:44:32;;;;;;;;;;;17.50;99.90;;;16.23;95.28;100546.06;3549743;39;102126;-38
2021/07/26 00:47:00;;;;;;;;;;;17.50;99.90;;;16.25;95.16;100554.91;3550269;39;102223;-39
2021/07/26 00:49:28;;;;;;;;;;;17.50;99.90;;;16.24;94.96;100544.97;3550318;39;102716;-39
2021/07/26 00:51:58;;;;;;;;;;;17.50;99.90;;;16.24;94.65;100544.97;3550450;39;102077;-38
2021/07/26 00:54:36;;;;;;;;;;;17.50;99.90;;;16.27;94.17;100540.03;3549750;39;102778;-39
2021/07/26 00:57:05;;;;;;;;;;;17.50;99.90;;;16.30;93.56;100534.84;3550150;39;103941;-39
2021/07/26 00:59:34;;;;;;;;;;;17.60;99.90;;;16.28;93.04;100522.44;3549890;39;102173;-39
2021/07/26 01:02:01;;;;;;;;;;;17.50;99.90;;;16.27;93.14;100524.34;3549931;39;102281;-39
2021/07/26 01:04:29;;;;;;;;;;;17.50;99.90;;;16.25;93.04;100523.78;3549903;39;102385;-38
2021/07/26 01:06:57;;;;;;;;;;;17.50;99.90;;;16.22;92.92;100527.91;3549637;39;102223;-39
2021/07/26 01:09:24;;;;;;;;;;;17.50;99.90;;;16.21;92.99;100531.72;3549509;39;103912;-39
2021/07/26 01:11:52;;;;;;;;;;;17.50;99.90;;;16.21;93.05;100537.25;3549875;39;103050;-40
2021/07/26 01:14:19;;;;;;;;;;;17.40;99.90;;;16.21;92.52;100530.88;3549925;39;102211;-39
2021/07/26 01:16:48;;;;;;;;;;;17.50;99.90;;;16.19;92.29;100530.31;3550355;39;105665;-38
2021/07/26 01:19:15;;;;;;;;;;;17.50;99.90;;;16.18;92.25;100536.91;3551021;39;102900;-39
2021/07/26 01:21:44;;;;;;;;;;;17.50;99.90;;;16.18;92.15;100537.75;3551227;39;103029;-40
2021/07/26 01:24:11;;;;;;;;;;;17.50;99.90;;;16.20;92.03;100543.84;3551247;39;102138;-39
2021/07/26 01:26:39;;;;;;;;;;;17.50;99.90;;;16.18;92.11;100537.75;3550903;39;104262;-39
2021/07/26 01:29:08;;;;;;;;;;;17.40;99.90;;;16.18;92.06;100537.75;3551214;39;102373;-38
2021/07/26 01:31:35;;;;;;;;;;;17.40;99.90;;;16.20;91.26;100546.59;3551004;39;102245;-38
2021/07/26 01:34:02;;;;;;;;;;;17.50;99.90;;;16.18;91.16;100536.91;3551128;39;102346;-38
2021/07/26 01:36:30;;;;;;;;;;;17.40;99.90;;;16.24;91.16;100536.72;3551282;39;103212;-38
2021/07/26 01:38:57;;;;;;;;;;;17.50;99.90;;;16.19;90.95;100538.56;3551320;39;102282;-38
2021/07/26 01:41:29;;;;;;;;;;;17.40;99.90;;;16.18;90.93;100534.16;3551177;39;103101;-38
2021/07/26 01:44:03;;;;;;;;;;;17.40;99.90;;;16.13;91.07;100537.69;3551121;39;102698;-38
2021/07/26 01:47:00;;;;;;;;;;;17.40;99.90;;;16.12;91.61;100538.75;3550944;39;102163;-39
2021/07/26 01:49:52;;;;;;;;;;;17.40;99.90;;;16.11;91.55;100542.59;3551107;39;102262;-39
2021/07/26 01:52:21;;;;;;;;;;;17.40;99.90;;;16.06;91.56;100535.13;3550789;39;102184;-39
2021/07/26 01:54:49;;;;;;;;;;;17.40;99.90;;;16.01;91.54;100537.81;3682136;22;104463;-40
2021/07/26 01:57:16;;;;;;;;;;;17.30;99.90;;;16.00;92.07;100538.06;3550749;39;103591;-40
2021/07/26 01:59:44;;;;;;;;;;;17.30;99.90;;;16.00;92.43;100546.34;3550921;39;102082;-40
2021/07/26 02:02:11;;;;;;;;;;;17.30;99.90;;;15.97;92.46;100539.41;3550779;39;102208;-41
2021/07/26 02:04:38;;;;;;;;;;;17.20;99.90;;;15.95;92.53;100545.19;3551075;39;102412;-40
2021/07/26 02:07:06;;;;;;;;;;;17.20;99.90;;;15.87;92.55;100540.06;3551084;39;102242;-40
2021/07/26 02:09:34;;;;;;;;;;;17.20;99.90;;;15.88;92.63;100538.16;3550981;39;102227;-42
2021/07/26 02:12:02;;;;;;;;;;;17.20;99.90;;;15.86;92.62;100545.84;3550686;39;104090;-43
2021/07/26 02:14:30;;;;;;;;;;;17.20;99.90;;;15.82;92.71;100545.50;3550583;39;102418;-41
2021/07/26 02:16:57;;;;;;;;;;;17.10;99.90;;;15.88;92.38;100544.50;3550908;39;103182;-40
2021/07/26 02:19:24;;;;;;;;;;;17.20;99.90;;;15.87;92.48;100542.00;3550724;39;102882;-40
2021/07/26 02:21:51;;;;;;;;;;;17.10;99.90;;;15.89;92.51;100543.44;3551161;39;102278;-40
2021/07/26 02:24:19;;;;;;;;;;;17.20;99.90;;;15.89;92.79;100546.19;3550209;39;102269;-40
2021/07/26 02:26:46;;;;;;;;;;;17.20;99.90;;;15.91;92.59;100549.53;3550732;39;103149;-41
2021/07/26 02:29:13;;;;;;;;;;;17.20;99.90;;;15.93;93.00;100552.00;3550932;39;102901;-40
2021/07/26 02:31:40;;;;;;;;;;;17.20;99.90;;;15.92;92.94;100544.84;3550952;39;103225;-40
2021/07/26 02:34:08;;;;;;;;;;;17.20;99.90;;;15.90;93.04;100553.34;3550477;39;102245;-40
2021/07/26 02:36:35;;;;;;;;;;;17.20;99.90;;;15.93;93.20;100558.38;3550832;39;103061;-40
2021/07/26 02:39:02;;;;;;;;;;;17.20;99.90;;;15.95;93.58;100564.44;3551065;39;102395;-40
2021/07/26 02:41:29;;;;;;;;;;;17.20;99.90;;;15.96;93.75;100568.00;3550539;39;102339;-40
2021/07/26 02:43:56;;;;;;;;;;;17.20;99.90;;;15.96;94.14;100568.84;3550595;39;102279;-40
2021/07/26 02:46:23;;;;;;;;;;;17.20;99.90;;;15.93;94.29;100572.13;3550300;39;102189;-40
2021/07/26 02:48:51;;;;;;;;;;;17.20;99.90;;;15.93;94.77;100569.38;3550899;39;102224;-40
2021/07/26 02:51:18;;;;;;;;;;;17.20;99.90;;;15.94;94.76;100570.19;3550715;39;104280;-40
2021/07/26 02:53:45;;;;;;;;;;;17.20;99.90;;;15.94;94.40;100575.69;3550947;39;102902;-40
2021/07/26 02:56:12;;;;;;;;;;;17.20;99.90;;;15.94;94.45;100575.69;3550429;39;106276;-40
2021/07/26 02:58:40;;;;;;;;;;;17.20;99.90;;;15.93;94.25;100580.38;3550698;39;102293;-40
2021/07/26 03:01:11;;;;;;;;;;;17.20;99.90;;;15.95;94.21;100582.84;3550532;39;103067;-40
2021/07/26 03:03:39;;;;;;;;;;;17.20;99.90;;;15.93;94.12;100583.13;3550340;39;102194;-40
2021/07/26 03:06:16;;;;;;;;;;;17.20;99.90;;;15.96;94.08;100585.34;3550460;39;102250;-40
2021/07/26 03:08:44;;;;;;;;;;;17.30;99.90;;;15.99;94.09;100591.44;3550784;39;102160;-40
2021/07/26 03:11:12;;;;;;;;;;;17.20;99.90;;;15.99;94.05;100588.69;3550227;39;103974;-40
2021/07/26 03:13:40;;;;;;;;;;;17.20;99.90;;;15.92;94.34;100578.72;3550794;39;102276;-39
2021/07/26 03:16:12;;;;;;;;;;;17.20;99.90;;;15.93;94.05;100591.38;3550642;39;102169;-40
2021/07/26 03:18:40;;;;;;;;;;;17.20;99.90;;;15.93;94.44;100591.38;3550607;39;102284;-40
2021/07/26 03:21:11;;;;;;;;;;;17.20;99.90;;;15.94;94.88;100598.53;3550602;39;103272;-40
2021/07/26 03:23:39;;;;;;;;;;;17.20;99.90;;;15.95;94.91;100588.34;3550365;39;102342;-42
2021/07/26 03:26:06;;;;;;;;;;;17.20;99.90;;;15.97;94.81;100594.44;3550357;39;102463;-40
2021/07/26 03:28:34;;;;;;;;;;;17.20;99.90;;;15.98;94.26;100598.84;3550919;39;102419;-40
2021/07/26 03:31:01;;;;;;;;;;;17.20;99.90;;;15.94;94.48;100590.28;3550399;39;102360;-43
2021/07/26 03:33:29;;;;;;;;;;;17.20;99.90;;;15.95;94.57;100594.69;3550391;39;102213;-40
2021/07/26 03:35:56;;;;;;;;;;;17.20;99.90;;;15.95;94.62;100589.19;3550163;39;102586;-40
2021/07/26 03:38:24;;;;;;;;;;;17.20;99.90;;;15.95;94.69;100591.94;3550043;39;102144;-41
2021/07/26 03:40:52;;;;;;;;;;;17.20;99.90;;;15.98;95.07;100598.03;3549708;39;102331;-40
2021/07/26 03:43:19;;;;;;;;;;;17.20;99.90;;;16.00;95.35;100593.09;3550578;39;102379;-40
2021/07/26 03:45:46;;;;;;;;;;;17.20;99.90;;;16.02;95.18;100593.69;3550137;39;103484;-41
2021/07/26 03:48:14;;;;;;;;;;;17.30;99.90;;;16.04;95.20;100595.06;3550540;39;102587;-40
2021/07/26 03:50:41;;;;;;;;;;;17.30;99.90;;;16.05;95.13;100593.16;3550448;39;102376;-40
2021/07/26 03:53:08;;;;;;;;;;;17.30;99.90;;;16.05;95.13;100590.41;3550691;39;102586;-40
2021/07/26 03:55:37;;;;;;;;;;;17.30;99.90;;;16.05;94.96;100598.66;3549818;39;102370;-40
2021/07/26 03:58:04;;;;;;;;;;;17.30;99.90;;;16.03;95.04;100598.91;3550282;39;102545;-39
2021/07/26 04:00:32;;;;;;;;;;;17.30;99.90;;;16.03;95.29;100595.34;3550096;39;102643;-40
2021/07/26 04:05:45;;;;;;;;;;;17.30;99.90;;;16.06;95.35;100605.84;3550349;39;103050;-40
2021/07/26 04:08:15;;;;;;;;;;;17.30;99.90;;;16.08;95.18;100600.91;3550716;39;102739;-40
2021/07/26 04:10:48;;;;;;;;;;;17.30;99.90;;;16.12;94.98;100604.00;3550280;39;103899;-43
2021/07/26 04:13:15;;;;;;;;;;;17.40;99.90;;;16.16;95.00;100605.97;3550268;39;102291;-41
2021/07/26 04:15:49;;;;;;;;;;;17.40;99.90;;;16.20;94.80;100612.63;3550141;39;103243;-40
2021/07/26 04:18:16;;;;;;;;;;;17.40;99.90;;;16.24;94.61;100611.03;3550529;39;102228;-40
2021/07/26 04:20:43;;;;;;;;;;;17.50;99.90;;;16.32;94.56;100607.00;3550765;39;102302;-40
2021/07/26 04:23:11;;;;;;;;;;;17.50;99.90;;;16.37;94.54;100612.56;3549906;39;102237;-40
2021/07/26 04:25:38;;;;;;;;;;;17.60;99.90;;;16.43;94.41;100618.13;3549898;39;102148;-40
2021/07/26 04:28:06;;;;;;;;;;;17.60;99.90;;;16.50;93.86;100611.34;3549774;39;102404;-41
2021/07/26 04:30:33;;;;;;;;;;;17.70;99.90;;;16.57;93.90;100610.31;3549950;39;102288;-40
2021/07/26 04:33:02;;;;;;;;;;;17.70;99.90;;;16.63;93.32;100609.25;3550300;39;102797;-40
2021/07/26 04:35:29;;;;;;;;;;;17.80;99.90;;;16.68;92.82;100609.31;3549478;39;104323;-40
2021/07/26 04:37:56;;;;;;;;;;;17.80;99.90;;;16.80;92.07;100606.41;3549720;39;102361;-43
2021/07/26 04:40:23;;;;;;;;;;;17.90;99.90;;;16.88;91.84;100610.63;3550341;39;103062;-40
2021/07/26 04:42:50;;;;;;;;;;;18.00;99.90;;;16.97;92.17;100614.56;3550066;39;102428;-40
2021/07/26 04:45:18;;;;;;;;;;;18.10;99.90;;;17.05;91.71;100616.91;3549882;39;102159;-40
2021/07/26 04:47:45;;;;;;;;;;;18.10;99.90;;;17.13;91.55;100610.09;3550014;39;102436;-40
2021/07/26 04:50:13;;;;;;;;;;;18.20;99.90;;;17.24;90.20;100613.78;3550485;39;102232;-39
2021/07/26 04:52:40;;;;;;;;;;;18.30;99.90;;;17.31;90.15;100625.41;3550930;39;102314;-40
2021/07/26 04:55:08;;;;;;;;;;;18.40;99.90;;;17.45;90.69;100623.03;3551171;39;102125;-41
2021/07/26 04:57:35;;;;;;;;;;;18.50;99.90;;;17.49;89.95;100626.91;3551091;39;102488;-40
2021/07/26 05:00:04;;;;;;;;;;;18.50;99.90;;;17.58;89.33;100627.25;3551272;39;102286;-40
2021/07/26 05:02:31;;;;;;;;;;;18.60;99.90;;;17.67;88.74;100630.38;3551251;39;102708;-40
2021/07/26 05:05:01;;;;;;;;;;;18.70;99.90;;;17.75;88.70;100627.09;3551294;39;103109;-40
2021/07/26 05:07:28;;;;;;;;;;;18.80;99.90;;;17.86;88.32;100635.44;3558695;39;103003;-40
2021/07/26 05:09:55;;;;;;;;;;;18.90;99.90;;;17.91;87.86;100639.06;3551405;39;103252;-40
2021/07/26 05:12:22;;;;;;;;;;;18.90;99.90;;;17.94;87.93;100626.69;3551562;39;102908;-40
2021/07/26 05:14:52;;;;;;;;;;;19.00;99.90;;;17.98;87.15;100639.66;3550787;39;104064;-40
2021/07/26 05:17:23;;;;;;;;;;;19.00;99.90;;;18.06;86.88;100635.59;3550982;39;102380;-40
2021/07/26 05:19:50;;;;;;;;;;;19.10;99.90;;;18.16;87.47;100632.06;3551232;39;103040;-40
2021/07/26 05:22:18;;;;;;;;;;;19.20;99.90;;;18.25;87.91;100637.91;3551524;39;102286;-40
2021/07/26 05:24:46;;;;;;;;;;;19.30;99.90;;;18.31;85.76;100638.78;3550653;39;103030;-40
2021/07/26 05:27:14;;;;;;;;;;;19.30;99.90;;;18.42;86.58;100646.00;3551207;39;102366;-40
2021/07/26 05:29:41;;;;;;;;;;;19.40;99.90;;;18.50;85.86;100645.47;3550811;39;102459;-40
2021/07/26 05:32:09;;;;;;;;;;;19.50;99.90;;;18.53;84.95;100644.91;3551380;39;102396;-40
2021/07/26 05:34:36;;;;;;;;;;;19.50;99.90;;;18.59;84.13;100644.97;3551089;39;103101;-40
2021/07/26 05:37:03;;;;;;;;;;;19.60;99.90;;;18.67;84.08;100644.44;3551103;39;102190;-40
2021/07/26 05:39:31;;;;;;;;;;;19.60;99.90;;;18.81;83.76;100650.25;3551156;39;103067;-40
2021/07/26 05:42:00;;;;;;;;;;;19.70;99.90;;;18.92;82.84;100646.41;3551486;39;102399;-40
2021/07/26 05:44:28;;;;;;;;;;;19.80;99.90;;;19.19;83.16;100650.09;3551167;39;102367;-43
2021/07/26 05:46:55;;;;;;;;;;;20.00;99.90;;;19.37;81.42;100644.03;3551063;39;102375;-40
2021/07/26 05:49:24;;;;;;;;;;;20.20;99.90;;;19.49;80.43;100640.13;3551117;39;103241;-40
2021/07/26 05:51:51;;;;;;;;;;;20.30;99.90;;;19.61;79.81;100639.84;3550941;39;102561;-39
2021/07/26 05:54:18;;;;;;;;;;;20.40;99.90;;;19.72;79.16;100640.69;3550732;39;103116;-40
2021/07/26 05:56:47;;;;;;;;;;;20.50;99.90;;;19.87;80.17;100648.94;3551088;39;102917;-40
2021/07/26 05:59:16;;;;;;;;;;;20.70;99.90;;;19.96;79.10;100639.00;3550764;39;103545;-41
2021/07/26 06:01:49;;;;;;;;;;;20.80;99.90;;;20.00;78.10;100641.22;3550661;39;102989;-40
2021/07/26 06:04:18;;;;;;;;;;;20.80;99.90;;;20.04;76.07;100642.31;3550971;39;103213;-40
2021/07/26 06:06:50;;;;;;;;;;;20.90;99.90;;;19.88;75.91;100639.53;3551015;39;102332;-40
2021/07/26 06:09:18;;;;;;;;;;;20.80;99.90;;;20.03;75.11;100643.41;3550853;39;102294;-39
2021/07/26 06:11:46;;;;;;;;;;;20.90;99.90;;;20.12;74.18;100648.09;3550776;39;102157;-40
2021/07/26 06:14:13;;;;;;;;;;;21.00;99.90;;;20.26;74.77;100645.56;3550538;39;104195;-40
2021/07/26 06:16:48;;;;;;;;;;;21.10;99.90;;;20.34;73.47;100651.63;3550874;39;102282;-40
2021/07/26 06:19:17;;;;;;;;;;;21.20;99.90;;;20.48;73.70;100649.91;3550676;39;102368;-40
2021/07/26 06:21:44;;;;;;;;;;;21.30;99.90;;;20.64;73.32;100649.81;3550489;39;102273;-40
2021/07/26 06:24:13;;;;;;;;;;;21.40;99.90;;;20.83;73.92;100648.09;3550604;39;102283;-40
2021/07/26 06:26:41;;;;;;;;;;;21.50;99.90;;;20.88;71.06;100641.69;3550903;39;102373;-40
2021/07/26 06:29:09;;;;;;;;;;;21.60;99.90;;;20.90;70.27;100641.41;3550666;39;103239;-40
2021/07/26 06:31:37;;;;;;;;;;;21.70;99.90;;;21.02;71.46;100655.75;3550719;39;102452;-40
2021/07/26 06:34:05;;;;;;;;;;;21.80;99.90;;;21.25;70.47;100651.41;3550462;39;103280;-40
2021/07/26 06:36:35;;;;;;;;;;;21.90;99.90;;;21.42;69.77;100651.00;3551180;39;102135;-40
2021/07/26 06:39:03;;;;;;;;;;;22.10;99.90;;;21.62;69.14;100656.69;3550863;39;104062;-39
2021/07/26 06:41:31;;;;;;;;;;;22.30;99.90;;;21.68;68.19;100659.13;3550898;39;102430;-40
2021/07/26 06:43:58;;;;;;;;;;;22.30;99.90;;;21.59;68.27;100665.56;3550682;39;104129;-41
2021/07/26 06:46:26;;;;;;;;;;;22.30;99.90;;;21.73;68.30;100658.28;3550793;39;102430;-40
2021/07/26 06:48:53;;;;;;;;;;;22.50;99.90;;;21.69;68.43;100669.13;3550771;39;103282;-40
2021/07/26 06:51:22;;;;;;;;;;;22.50;99.90;;;21.69;67.92;100673.88;3549908;39;102261;-44
2021/07/26 06:53:49;;;;;;;;;;;22.50;99.90;;;21.69;68.43;100680.22;3551074;39;102126;-40
2021/07/26 06:56:16;;;;;;;;;;;22.50;99.90;;;21.64;66.35;100682.22;3550416;39;103445;-40
2021/07/26 06:58:44;;;;;;;;;;;22.40;99.90;;;21.71;67.10;100677.16;3550361;39;104018;-40
2021/07/26 07:01:13;;;;;;;;;;;22.50;99.90;;;21.76;66.44;100676.31;3551021;39;102779;-40
2021/07/26 07:03:43;;;;;;;;;;;22.50;99.90;;;21.58;65.87;100684.19;3550774;39;102293;-42
2021/07/26 07:06:12;;;;;;;;;;;22.40;99.90;;;21.48;66.82;100692.59;3550787;39;102271;-40
2021/07/26 07:08:40;;;;;;;;;;;22.40;99.90;;;21.32;68.49;100687.16;3550852;39;104011;-43
2021/07/26 07:11:12;;;;;;;;;;;22.20;99.90;;;21.27;69.03;100690.78;3550627;39;102435;-41
2021/07/26 07:13:42;;;;;;;;;;;22.20;99.90;;;21.09;67.70;100677.63;3549895;39;103247;-39
2021/07/26 07:16:18;;;;;;;;;;;22.10;99.90;;;21.05;69.74;100694.00;3550758;39;102488;-41
2021/07/26 07:18:50;;;;;;;;;;;22.00;99.90;;;21.01;70.09;100703.16;3550375;39;102258;-40
2021/07/26 07:21:28;;;;;;;;;;;22.00;99.90;;;20.90;70.09;100691.31;3550989;39;102221;-40
2021/07/26 07:23:57;;;;;;;;;;;21.90;99.90;;;20.83;71.03;100695.22;3550170;39;102371;-40
2021/07/26 07:26:24;;;;;;;;;;;21.80;99.90;;;20.72;68.99;100689.97;3550818;39;102322;-41
2021/07/26 07:28:52;;;;;;;;;;;21.70;99.90;;;20.57;67.53;100691.72;3550501;39;102188;-40
2021/07/26 07:31:33;;;;;;;;;;;21.70;99.90;;;20.65;69.91;100696.66;3550506;39;102218;-40
2021/07/26 07:34:05;;;;;;;;;;;21.70;99.90;;;20.66;69.25;100686.41;3550514;39;104300;-40
2021/07/26 07:36:32;;;;;;;;;;;21.70;99.90;;;20.92;68.69;100697.38;3550451;39;102378;-43
2021/07/26 07:39:01;;;;;;;;;;;21.80;99.90;;;20.90;67.27;100699.63;3550819;39;103237;-40
2021/07/26 07:41:28;;;;;;;;;;;21.80;99.90;;;21.04;66.12;100697.88;3550568;39;102470;-38
2021/07/26 07:43:55;;;;;;;;;;;21.90;99.90;;;21.17;66.56;100703.91;3550106;39;102516;-40
2021/07/26 07:46:22;;;;;;;;;;;22.00;99.90;;;21.52;66.66;100697.28;3550253;39;102472;-39
2021/07/26 07:48:50;;;;;;;;;;;22.30;99.90;;;21.82;65.27;100698.16;3550847;39;103196;-40
2021/07/26 07:51:18;;;;;;;;;;;22.50;99.90;;;21.99;64.09;100694.94;3550367;39;102291;-43
2021/07/26 07:53:47;;;;;;;;;;;22.70;99.90;;;22.09;63.58;100691.22;3550172;39;103984;-40
2021/07/26 07:56:15;;;;;;;;;;;22.80;99.90;;;22.19;63.53;100703.38;3683457;22;103823;-41
2021/07/26 07:58:42;;;;;;;;;;;22.90;99.90;;;22.25;61.25;100703.00;3550017;39;102417;-38
2021/07/26 08:01:09;;;;;;;;;;;23.00;99.90;;;22.35;63.12;100704.03;3550399;39;102162;-38
2021/07/26 08:03:37;;;;;;;;;;;23.20;99.90;;;22.39;60.69;100691.19;3550282;39;102666;-39
2021/07/26 08:06:04;;;;;;;;;;;23.30;99.90;;;22.52;61.84;100695.25;3550456;39;102182;-39
2021/07/26 08:08:32;;;;;;;;;;;23.30;99.90;;;22.60;60.41;100702.09;3550463;39;102234;-39
2021/07/26 08:10:59;;;;;;;;;;;23.40;99.90;;;22.35;60.06;100701.25;3550151;39;102165;-38
2021/07/26 08:13:28;;;;;;;;;;;23.20;99.90;;;22.32;62.15;100694.31;3550081;39;102156;-39
2021/07/26 08:15:55;;;;;;;;;;;23.20;99.90;;;22.41;62.30;100695.34;3550374;39;102488;-39
2021/07/26 08:18:23;;;;;;;;;;;23.30;99.90;;;22.31;62.13;100683.53;3550142;39;102442;-39
2021/07/26 08:20:52;;;;;;;;;;;23.20;99.90;;;22.57;61.57;100697.94;3549973;39;102256;-39
2021/07/26 08:23:19;;;;;;;;;;;23.30;99.90;;;22.79;61.42;100688.22;3549976;39;103224;-39
2021/07/26 08:25:46;;;;;;;;;;;23.50;99.90;;;23.01;60.82;100695.97;3550196;39;102282;-38
2021/07/26 08:28:14;;;;;;;;;;;23.70;99.90;;;23.11;59.53;100693.06;3550453;39;102792;-38
2021/07/26 08:30:41;;;;;;;;;;;23.80;99.90;;;22.98;56.75;100691.84;3550359;39;102201;-40
2021/07/26 08:33:09;;;;;;;;;;;23.90;99.90;;;23.03;61.17;100688.16;3550068;39;102272;-38
2021/07/26 08:35:37;;;;;;;;;;;23.80;99.90;;;23.17;62.14;100692.97;3549964;39;102916;-39
2021/07/26 08:38:05;;;;;;;;;;;23.90;99.90;;;23.06;59.48;100682.00;3549729;39;102595;-39
2021/07/26 08:40:34;;;;;;;;;;;23.90;99.90;;;23.15;59.80;100698.84;3549667;39;102411;-39
2021/07/26 08:43:04;;;;;;;;;;;23.90;99.90;;;22.93;58.82;100696.66;3550226;39;102268;-39
2021/07/26 08:45:32;;;;;;;;;;;23.80;99.90;;;22.98;60.93;100694.63;3549918;39;102379;-39
2021/07/26 08:48:05;;;;;;;;;;;23.80;99.90;;;22.82;59.01;100701.53;3550196;39;104062;-42
2021/07/26 08:50:34;;;;;;;;;;;23.70;99.90;;;22.84;61.26;100694.56;3550109;39;102433;-39
2021/07/26 08:53:03;;;;;;;;;;;23.70;99.90;;;22.76;59.66;100697.16;3550046;39;103198;-38
2021/07/26 08:55:37;;;;;;;;;;;23.60;99.90;;;22.67;60.72;100716.47;3549371;39;102351;-38
2021/07/26 08:58:05;;;;;;;;;;;23.50;99.90;;;22.60;59.17;100716.00;3549765;39;102269;-39
2021/07/26 09:00:33;;;;;;;;;;;23.50;99.90;;;22.58;60.71;100712.69;3549870;39;102051;-39
2021/07/26 09:03:03;;;;;;;;;;;23.50;99.90;;;22.62;62.67;100716.53;3549881;39;102351;-40
2021/07/26 09:05:30;;;;;;;;;;;23.50;99.90;;;22.62;60.00;100714.56;3549848;39;102180;-39
2021/07/26 09:08:01;;;;;;;;;;;23.50;99.90;;;22.62;62.00;100713.75;3549930;39;102184;-39
2021/07/26 09:10:33;;;;;;;;;;;23.50;99.90;;;22.62;60.11;100713.75;3550003;39;102157;-39
2021/07/26 09:13:02;;;;;;;;;;;23.50;99.90;;;22.89;59.79;100715.06;3550249;39;102147;-39
2021/07/26 09:15:35;;;;;;;;;;;23.60;99.90;;;23.02;59.69;100713.50;3549691;39;102195;-39
2021/07/26 09:18:05;;;;;;;;;;;23.70;99.90;;;23.30;60.70;100720.06;3549746;39;104074;-40
2021/07/26 09:20:35;;;;;;;;;;;23.90;99.90;;;23.28;58.39;100716.75;3549272;39;102332;-40
2021/07/26 09:23:16;;;;;;;;;;;24.00;99.90;;;23.22;57.26;100713.22;3549421;39;102662;-40
2021/07/26 09:25:45;;;;;;;;;;;24.10;99.90;;;23.26;58.95;100719.88;3549090;39;102277;-40
2021/07/26 09:28:17;;;;;;;;;;;24.00;99.90;;;23.08;57.77;100721.50;3549926;39;102127;-40
2021/07/26 09:30:48;;;;;;;;;;;23.90;99.90;;;23.15;59.09;100717.50;3549491;39;102374;-40
2021/07/26 09:33:27;;;;;;;;;;;24.00;99.90;;;23.03;58.91;100709.59;3549818;39;102342;-40
2021/07/26 09:36:03;;;;;;;;;;;23.90;99.90;;;22.81;58.71;100724.91;3549303;39;102243;-42
2021/07/26 09:38:32;;;;;;;;;;;23.80;99.90;;;22.96;60.65;100715.53;3550785;39;103246;-39
2021/07/26 09:41:01;;;;;;;;;;;23.80;99.90;;;23.07;57.18;100717.03;3551441;39;102401;-40
2021/07/26 09:43:28;;;;;;;;;;;23.90;99.90;;;23.51;57.96;100725.31;3550779;39;103345;-40
2021/07/26 09:45:56;;;;;;;;;;;24.10;99.90;;;23.95;59.38;100724.03;3550839;39;102423;-40
2021/07/26 09:48:26;;;;;;;;;;;24.40;99.90;;;24.21;57.72;100717.19;3551228;39;102330;-38
2021/07/26 09:50:55;;;;;;;;;;;24.70;99.90;;;24.42;57.05;100720.44;3551362;39;102260;-41
2021/07/26 09:53:25;;;;;;;;;;;24.90;99.90;;;24.74;57.43;100715.84;3550732;39;103104;-40
2021/07/26 09:56:12;;;;;;;;;;;;;;;24.91;58.03;100719.97;3550241;39;102446;-39
2021/07/26 09:58:41;;;;;;;;;;;;;;;25.05;52.69;100720.78;3550956;39;103170;-40
2021/07/26 10:01:09;;;;;;;;;;;;;;;25.36;52.80;100719.25;3551134;39;103196;-40
2021/07/26 10:03:41;;;;;;;;;;;;;;;25.02;52.59;100720.59;3551205;39;102415;-41
2021/07/26 10:06:10;;;;;;;;;;;;;;;24.67;53.19;100715.47;3550865;39;102343;-42
2021/07/26 10:08:39;;;;;;;;;;;25.20;99.90;;;24.58;54.86;100711.72;3550810;39;103203;-40
2021/07/26 10:11:08;;;;;;;;;;;25.40;99.90;;;24.49;55.16;100709.69;3550860;39;102266;-40
2021/07/26 10:13:42;;;;;;;;;;;25.40;99.90;;;24.41;54.70;100707.63;3550332;39;102980;-40
2021/07/26 10:16:14;;;;;;;;;;;25.40;99.90;;;24.51;55.95;100726.91;3550661;39;102806;-40
2021/07/26 10:18:45;;;;;;;;;;;25.40;99.90;;;24.44;53.58;100731.25;3550749;39;102278;-39
2021/07/26 10:21:18;;;;;;;;;;;25.40;99.90;;;24.63;57.02;100731.97;3551116;39;103154;-41
2021/07/26 10:24:03;;;;;;;;;;;;;;;25.05;54.00;100726.38;3550643;39;102162;-40
2021/07/26 10:26:35;;;;;;;;;;;;;;;25.26;52.26;100718.34;3550989;39;103014;-40
2021/07/26 10:29:03;;;;;;;;;;;;;;;25.31;50.35;100716.56;3550628;39;103299;-40
2021/07/26 10:31:31;;;;;;;;;;;;;;;25.04;51.39;100719.16;3550722;39;102082;-39
2021/07/26 10:34:07;;;;;;;;;;;25.40;99.90;;;24.70;52.20;100710.06;3550391;39;102207;-38
2021/07/26 10:36:40;;;;;;;;;;;25.70;99.90;;;24.73;55.56;100710.56;3550353;39;102255;-40
2021/07/26 10:39:14;;;;;;;;;;;;;;;25.01;52.23;100699.41;3550861;39;102299;-40
2021/07/26 10:41:47;;;;;;;;;;;25.50;99.90;;;24.99;54.37;100710.91;3550934;39;102439;-40
2021/07/26 10:44:17;;;;;;;;;;;25.80;99.90;;;24.61;50.96;100705.53;3550372;39;103141;-40
2021/07/26 10:46:51;;;;;;;;;;;25.60;99.90;;;24.52;52.42;100709.06;3550439;39;102448;-40
2021/07/26 10:49:37;;;;;;;;;;;25.50;99.90;;;24.44;54.13;100715.38;3550422;39;102655;-40
2021/07/26 10:52:04;;;;;;;;;;;25.40;99.90;;;24.65;53.31;100710.19;3550601;39;102379;-40
2021/07/26 10:54:34;;;;;;;;;;;25.40;99.90;;;25.01;53.70;100708.63;3550023;39;102709;-41
2021/07/26 10:57:01;;;;;;;;;;;25.60;99.90;;;25.04;51.18;100698.78;3550892;39;102293;-40
2021/07/26 10:59:30;;;;;;;;;;;25.70;99.90;;;25.02;47.58;100710.25;3549744;39;102334;-40
2021/07/26 11:02:01;;;;;;;;;;;;;;;25.34;49.25;100702.81;3550894;39;101708;-40
2021/07/26 11:04:36;;;;;;;;;;;;;;;25.81;50.18;100708.09;3550512;39;102344;-40
2021/07/26 11:07:10;;;;;;;;;;;;;;;26.03;47.25;100708.41;3550684;39;102304;-40
2021/07/26 11:09:42;;;;;;;;;;;;;;;26.03;48.08;100703.63;3551001;39;103951;-39
2021/07/26 11:12:10;;;;;;;;;;;;;;;25.96;49.88;100706.88;3550678;39;102113;-40
2021/07/26 11:14:37;;;;;;;;;;;;;;;26.26;49.54;100712.00;3550668;39;102353;-40
2021/07/26 11:17:09;;;;;;;;;;;;;;;26.29;46.96;100702.97;3550614;39;102445;-41